sensor_id;sensor_type;location;lat;lon;timestamp;temperature;humidity
57108;DHT22;42987;52.916;6.542;2023-02-02T00:00:15;4.70;99.90
57108;DHT22;42987;52.916;6.542;2023-02-02T00:02:41;4.80;99.90
57108;DHT22;42987;52.916;6.542;2023-02-02T00:05:07;4.80;99.90
57108;DHT22;42987;52.916;6.542;2023-02-02T00:07:34;4.70;99.90
57108;DHT22;42987;52.916;6.542;2023-02-02T00:10:03;4.70;99.90
57108;DHT22;42987;52.916;6.542;2023-02-02T00:12:29;4.70;99.90
57108;DHT22;42987;52.916;6.542;2023-02-02T00:14:54;4.70;99.90
57108;DHT22;42987;52.916;6.542;2023-02-02T00:17:21;4.70;99.90
57108;DHT22;42987;52.916;6.542;2023-02-02T00:19:46;4.80;99.90
57108;DHT22;42987;52.916;6.542;2023-02-02T00:22:13;4.80;99.90
57108;DHT22;42987;52.916;6.542;2023-02-02T00:24:40;4.90;99.90
57108;DHT22;42987;52.916;6.542;2023-02-02T00:27:05;4.90;99.90
57108;DHT22;42987;52.916;6.542;2023-02-02T00:29:31;4.90;99.90
57108;DHT22;42987;52.916;6.542;2023-02-02T00:31:57;5.00;99.90
57108;DHT22;42987;52.916;6.542;2023-02-02T00:34:23;5.00;99.90
57108;DHT22;42987;52.916;6.542;2023-02-02T00:36:49;5.10;99.90
57108;DHT22;42987;52.916;6.542;2023-02-02T00:39:20;5.10;99.90
57108;DHT22;42987;52.916;6.542;2023-02-02T00:41:46;5.10;99.90
57108;DHT22;42987;52.916;6.542;2023-02-02T00:44:12;5.20;99.90
57108;DHT22;42987;52.916;6.542;2023-02-02T00:46:56;5.20;99.90
57108;DHT22;42987;52.916;6.542;2023-02-02T00:49:22;5.20;99.90
57108;DHT22;42987;52.916;6.542;2023-02-02T00:51:48;5.30;99.90
57108;DHT22;42987;52.916;6.542;2023-02-02T00:54:14;5.30;99.90
57108;DHT22;42987;52.916;6.542;2023-02-02T00:56:40;5.40;99.90
57108;DHT22;42987;52.916;6.542;2023-02-02T00:59:06;5.30;99.90
57108;DHT22;42987;52.916;6.542;2023-02-02T01:01:32;5.40;99.90
57108;DHT22;42987;52.916;6.542;2023-02-02T01:03:58;5.50;99.90
57108;DHT22;42987;52.916;6.542;2023-02-02T01:06:24;5.40;99.90
57108;DHT22;42987;52.916;6.542;2023-02-02T01:08:50;5.40;99.90
57108;DHT22;42987;52.916;6.542;2023-02-02T01:11:16;5.50;99.90
57108;DHT22;42987;52.916;6.542;2023-02-02T01:13:42;5.50;99.90
57108;DHT22;42987;52.916;6.542;2023-02-02T01:16:09;5.50;99.90
57108;DHT22;42987;52.916;6.542;2023-02-02T01:18:35;5.60;99.90
57108;DHT22;42987;52.916;6.542;2023-02-02T01:21:04;5.50;99.90
57108;DHT22;42987;52.916;6.542;2023-02-02T01:23:32;5.60;99.90
57108;DHT22;42987;52.916;6.542;2023-02-02T01:26:04;5.60;99.90
57108;DHT22;42987;52.916;6.542;2023-02-02T01:28:30;5.60;99.90
57108;DHT22;42987;52.916;6.542;2023-02-02T01:31:04;5.60;99.90
57108;DHT22;42987;52.916;6.542;2023-02-02T01:33:29;5.70;99.90
57108;DHT22;42987;52.916;6.542;2023-02-02T01:35:55;5.70;99.90
57108;DHT22;42987;52.916;6.542;2023-02-02T01:38:22;5.70;99.90
57108;DHT22;42987;52.916;6.542;2023-02-02T01:43:24;5.70;99.90
57108;DHT22;42987;52.916;6.542;2023-02-02T01:45:51;5.70;99.90
57108;DHT22;42987;52.916;6.542;2023-02-02T01:48:30;5.70;99.90
57108;DHT22;42987;52.916;6.542;2023-02-02T01:51:00;5.70;99.90
57108;DHT22;42987;52.916;6.542;2023-02-02T01:53:31;5.80;99.90
57108;DHT22;42987;52.916;6.542;2023-02-02T01:55:58;5.80;99.90
57108;DHT22;42987;52.916;6.542;2023-02-02T01:58:30;5.90;99.90
57108;DHT22;42987;52.916;6.542;2023-02-02T02:00:58;5.90;99.90
57108;DHT22;42987;52.916;6.542;2023-02-02T02:03:28;5.90;99.90
57108;DHT22;42987;52.916;6.542;2023-02-02T02:06:06;6.00;99.90
57108;DHT22;42987;52.916;6.542;2023-02-02T02:08:46;6.00;99.90
57108;DHT22;42987;52.916;6.542;2023-02-02T02:11:14;6.00;99.90
57108;DHT22;42987;52.916;6.542;2023-02-02T02:13:41;6.00;99.90
57108;DHT22;42987;52.916;6.542;2023-02-02T02:16:41;6.10;99.90
57108;DHT22;42987;52.916;6.542;2023-02-02T02:22:01;6.20;99.90
57108;DHT22;42987;52.916;6.542;2023-02-02T02:25:16;6.20;99.90
57108;DHT22;42987;52.916;6.542;2023-02-02T02:34:08;6.30;99.90
57108;DHT22;42987;52.916;6.542;2023-02-02T02:42:06;6.30;99.90
57108;DHT22;42987;52.916;6.542;2023-02-02T02:44:35;6.40;99.90
57108;DHT22;42987;52.916;6.542;2023-02-02T02:47:01;6.30;99.90
57108;DHT22;42987;52.916;6.542;2023-02-02T02:49:27;6.40;99.90
57108;DHT22;42987;52.916;6.542;2023-02-02T02:51:59;6.30;99.90
57108;DHT22;42987;52.916;6.542;2023-02-02T02:54:41;6.40;99.90
57108;DHT22;42987;52.916;6.542;2023-02-02T03:00:14;6.40;99.90
57108;DHT22;42987;52.916;6.542;2023-02-02T03:05:48;6.50;99.90
57108;DHT22;42987;52.916;6.542;2023-02-02T03:11:05;6.60;99.90
57108;DHT22;42987;52.916;6.542;2023-02-02T03:13:32;6.60;99.90
57108;DHT22;42987;52.916;6.542;2023-02-02T03:15:58;6.60;99.90
57108;DHT22;42987;52.916;6.542;2023-02-02T03:18:27;6.60;99.90
57108;DHT22;42987;52.916;6.542;2023-02-02T03:20:54;6.60;99.90
57108;DHT22;42987;52.916;6.542;2023-02-02T03:23:21;6.60;99.90
57108;DHT22;42987;52.916;6.542;2023-02-02T03:25:50;6.50;99.90
57108;DHT22;42987;52.916;6.542;2023-02-02T03:28:17;6.60;99.90
57108;DHT22;42987;52.916;6.542;2023-02-02T03:30:44;6.50;99.90
57108;DHT22;42987;52.916;6.542;2023-02-02T03:33:11;6.60;99.90
57108;DHT22;42987;52.916;6.542;2023-02-02T03:35:38;6.50;99.90
57108;DHT22;42987;52.916;6.542;2023-02-02T03:38:04;6.50;99.90
57108;DHT22;42987;52.916;6.542;2023-02-02T03:40:30;6.50;99.90
57108;DHT22;42987;52.916;6.542;2023-02-02T03:42:56;6.50;99.90
57108;DHT22;42987;52.916;6.542;2023-02-02T03:45:21;6.40;99.90
57108;DHT22;42987;52.916;6.542;2023-02-02T03:47:48;6.40;99.90
57108;DHT22;42987;52.916;6.542;2023-02-02T03:50:14;6.40;99.90
57108;DHT22;42987;52.916;6.542;2023-02-02T03:52:40;6.40;99.90
57108;DHT22;42987;52.916;6.542;2023-02-02T03:55:06;6.30;99.90
57108;DHT22;42987;52.916;6.542;2023-02-02T03:57:32;6.30;99.90
57108;DHT22;42987;52.916;6.542;2023-02-02T03:59:58;6.30;99.90
57108;DHT22;42987;52.916;6.542;2023-02-02T04:02:23;6.30;99.90
57108;DHT22;42987;52.916;6.542;2023-02-02T04:04:49;6.30;99.90
57108;DHT22;42987;52.916;6.542;2023-02-02T04:07:15;6.30;99.90
57108;DHT22;42987;52.916;6.542;2023-02-02T04:09:41;6.30;99.90
57108;DHT22;42987;52.916;6.542;2023-02-02T04:12:07;6.20;99.90
57108;DHT22;42987;52.916;6.542;2023-02-02T04:14:33;6.10;99.90
57108;DHT22;42987;52.916;6.542;2023-02-02T04:16:58;6.10;99.90
57108;DHT22;42987;52.916;6.542;2023-02-02T04:19:24;6.00;99.90
57108;DHT22;42987;52.916;6.542;2023-02-02T04:21:50;6.00;99.90
57108;DHT22;42987;52.916;6.542;2023-02-02T04:24:16;6.00;99.90
57108;DHT22;42987;52.916;6.542;2023-02-02T04:26:41;6.00;99.90
57108;DHT22;42987;52.916;6.542;2023-02-02T04:29:08;5.90;99.90
57108;DHT22;42987;52.916;6.542;2023-02-02T04:31:33;5.90;99.90
57108;DHT22;42987;52.916;6.542;2023-02-02T04:34:00;5.90;99.90
57108;DHT22;42987;52.916;6.542;2023-02-02T04:36:26;5.90;99.90
57108;DHT22;42987;52.916;6.542;2023-02-02T04:38:53;5.80;99.90
57108;DHT22;42987;52.916;6.542;2023-02-02T04:41:20;5.80;99.90
57108;DHT22;42987;52.916;6.542;2023-02-02T04:43:49;5.80;99.90
57108;DHT22;42987;52.916;6.542;2023-02-02T04:46:16;5.70;99.90
57108;DHT22;42987;52.916;6.542;2023-02-02T04:48:48;5.70;99.90
57108;DHT22;42987;52.916;6.542;2023-02-02T04:51:14;5.70;99.90
57108;DHT22;42987;52.916;6.542;2023-02-02T04:53:41;5.70;99.90
57108;DHT22;42987;52.916;6.542;2023-02-02T04:56:07;5.70;99.90
57108;DHT22;42987;52.916;6.542;2023-02-02T04:58:34;5.70;99.90
57108;DHT22;42987;52.916;6.542;2023-02-02T05:00:59;5.70;99.90
57108;DHT22;42987;52.916;6.542;2023-02-02T05:03:25;5.70;99.90
57108;DHT22;42987;52.916;6.542;2023-02-02T05:06:00;5.60;99.90
57108;DHT22;42987;52.916;6.542;2023-02-02T05:08:25;5.60;99.90
57108;DHT22;42987;52.916;6.542;2023-02-02T05:10:51;5.60;99.90
57108;DHT22;42987;52.916;6.542;2023-02-02T05:13:17;5.60;99.90
57108;DHT22;42987;52.916;6.542;2023-02-02T05:15:43;5.60;99.90
57108;DHT22;42987;52.916;6.542;2023-02-02T05:18:08;5.60;99.90
57108;DHT22;42987;52.916;6.542;2023-02-02T05:20:34;5.60;99.90
57108;DHT22;42987;52.916;6.542;2023-02-02T05:23:00;5.60;99.90
57108;DHT22;42987;52.916;6.542;2023-02-02T05:25:25;5.60;99.90
57108;DHT22;42987;52.916;6.542;2023-02-02T05:27:51;5.60;99.90
57108;DHT22;42987;52.916;6.542;2023-02-02T05:30:17;5.60;99.90
57108;DHT22;42987;52.916;6.542;2023-02-02T05:32:43;5.60;99.90
57108;DHT22;42987;52.916;6.542;2023-02-02T05:35:10;5.60;99.90
57108;DHT22;42987;52.916;6.542;2023-02-02T05:37:35;5.50;99.90
57108;DHT22;42987;52.916;6.542;2023-02-02T05:40:02;5.50;99.90
57108;DHT22;42987;52.916;6.542;2023-02-02T05:42:28;5.50;99.90
57108;DHT22;42987;52.916;6.542;2023-02-02T05:44:53;5.50;99.90
57108;DHT22;42987;52.916;6.542;2023-02-02T05:47:19;5.50;99.90
57108;DHT22;42987;52.916;6.542;2023-02-02T05:49:46;5.50;99.90
57108;DHT22;42987;52.916;6.542;2023-02-02T05:52:17;5.50;99.90
57108;DHT22;42987;52.916;6.542;2023-02-02T05:54:44;5.50;99.90
57108;DHT22;42987;52.916;6.542;2023-02-02T05:57:10;5.50;99.90
57108;DHT22;42987;52.916;6.542;2023-02-02T05:59:36;5.50;99.90
57108;DHT22;42987;52.916;6.542;2023-02-02T06:02:01;5.50;99.90
57108;DHT22;42987;52.916;6.542;2023-02-02T06:04:30;5.50;99.90
57108;DHT22;42987;52.916;6.542;2023-02-02T06:06:56;5.50;99.90
57108;DHT22;42987;52.916;6.542;2023-02-02T06:09:22;5.50;99.90
57108;DHT22;42987;52.916;6.542;2023-02-02T06:11:48;5.50;99.90
57108;DHT22;42987;52.916;6.542;2023-02-02T06:14:14;5.50;99.90
57108;DHT22;42987;52.916;6.542;2023-02-02T06:16:40;5.50;99.90
57108;DHT22;42987;52.916;6.542;2023-02-02T06:19:06;5.40;99.90
57108;DHT22;42987;52.916;6.542;2023-02-02T06:21:32;5.50;99.90
57108;DHT22;42987;52.916;6.542;2023-02-02T06:23:58;5.50;99.90
57108;DHT22;42987;52.916;6.542;2023-02-02T06:26:24;5.50;99.90
57108;DHT22;42987;52.916;6.542;2023-02-02T06:28:52;5.50;99.90
57108;DHT22;42987;52.916;6.542;2023-02-02T06:31:25;5.50;99.90
57108;DHT22;42987;52.916;6.542;2023-02-02T06:33:55;5.50;99.90
57108;DHT22;42987;52.916;6.542;2023-02-02T06:36:23;5.50;99.90
57108;DHT22;42987;52.916;6.542;2023-02-02T06:38:50;5.50;99.90
57108;DHT22;42987;52.916;6.542;2023-02-02T06:41:17;5.50;99.90
57108;DHT22;42987;52.916;6.542;2023-02-02T06:43:43;5.50;99.90
57108;DHT22;42987;52.916;6.542;2023-02-02T06:46:09;5.50;99.90
57108;DHT22;42987;52.916;6.542;2023-02-02T06:48:35;5.50;99.90
57108;DHT22;42987;52.916;6.542;2023-02-02T06:51:01;5.50;99.90
57108;DHT22;42987;52.916;6.542;2023-02-02T06:53:27;5.50;99.90
57108;DHT22;42987;52.916;6.542;2023-02-02T06:56:00;5.50;99.90
57108;DHT22;42987;52.916;6.542;2023-02-02T06:58:27;5.50;99.90
57108;DHT22;42987;52.916;6.542;2023-02-02T07:00:53;5.50;99.90
57108;DHT22;42987;52.916;6.542;2023-02-02T07:03:20;5.50;99.90
57108;DHT22;42987;52.916;6.542;2023-02-02T07:05:47;5.50;99.90
57108;DHT22;42987;52.916;6.542;2023-02-02T07:08:13;5.50;99.90
57108;DHT22;42987;52.916;6.542;2023-02-02T07:10:39;5.50;99.90
57108;DHT22;42987;52.916;6.542;2023-02-02T07:13:06;5.50;99.90
57108;DHT22;42987;52.916;6.542;2023-02-02T07:15:37;5.50;99.90
57108;DHT22;42987;52.916;6.542;2023-02-02T07:18:04;5.50;99.90
57108;DHT22;42987;52.916;6.542;2023-02-02T07:20:30;5.50;99.90
57108;DHT22;42987;52.916;6.542;2023-02-02T07:22:55;5.50;99.90
57108;DHT22;42987;52.916;6.542;2023-02-02T07:25:22;5.50;99.90
57108;DHT22;42987;52.916;6.542;2023-02-02T07:27:54;5.50;99.90
57108;DHT22;42987;52.916;6.542;2023-02-02T07:30:20;5.50;99.90
57108;DHT22;42987;52.916;6.542;2023-02-02T07:32:47;5.50;99.90
57108;DHT22;42987;52.916;6.542;2023-02-02T07:35:14;5.60;99.90
57108;DHT22;42987;52.916;6.542;2023-02-02T07:37:40;5.60;99.90
57108;DHT22;42987;52.916;6.542;2023-02-02T07:40:06;5.60;99.90
57108;DHT22;42987;52.916;6.542;2023-02-02T07:42:32;5.60;99.90
57108;DHT22;42987;52.916;6.542;2023-02-02T07:44:58;5.60;99.90
57108;DHT22;42987;52.916;6.542;2023-02-02T07:47:24;5.60;99.90
57108;DHT22;42987;52.916;6.542;2023-02-02T07:49:50;5.60;99.90
57108;DHT22;42987;52.916;6.542;2023-02-02T07:52:16;5.60;99.90
57108;DHT22;42987;52.916;6.542;2023-02-02T07:54:42;5.60;99.90
57108;DHT22;42987;52.916;6.542;2023-02-02T07:57:07;5.60;99.90
57108;DHT22;42987;52.916;6.542;2023-02-02T07:59:33;5.60;99.90
57108;DHT22;42987;52.916;6.542;2023-02-02T08:02:00;5.60;99.90
57108;DHT22;42987;52.916;6.542;2023-02-02T08:04:26;5.60;99.90
57108;DHT22;42987;52.916;6.542;2023-02-02T08:06:55;5.60;99.90
57108;DHT22;42987;52.916;6.542;2023-02-02T08:09:21;5.60;99.90
57108;DHT22;42987;52.916;6.542;2023-02-02T08:11:46;5.70;99.90
57108;DHT22;42987;52.916;6.542;2023-02-02T08:14:13;5.70;99.90
57108;DHT22;42987;52.916;6.542;2023-02-02T08:16:38;5.60;99.90
57108;DHT22;42987;52.916;6.542;2023-02-02T08:19:04;5.70;99.90
57108;DHT22;42987;52.916;6.542;2023-02-02T08:21:34;5.70;99.90
57108;DHT22;42987;52.916;6.542;2023-02-02T08:24:00;5.70;99.90
57108;DHT22;42987;52.916;6.542;2023-02-02T08:26:28;5.70;99.90
57108;DHT22;42987;52.916;6.542;2023-02-02T08:28:57;5.70;99.90
57108;DHT22;42987;52.916;6.542;2023-02-02T08:31:30;5.70;99.90
57108;DHT22;42987;52.916;6.542;2023-02-02T08:33:57;5.80;99.90
57108;DHT22;42987;52.916;6.542;2023-02-02T08:36:24;5.80;99.90
57108;DHT22;42987;52.916;6.542;2023-02-02T08:38:50;5.80;99.90
57108;DHT22;42987;52.916;6.542;2023-02-02T08:41:19;5.80;99.90
57108;DHT22;42987;52.916;6.542;2023-02-02T08:43:45;5.80;99.90
57108;DHT22;42987;52.916;6.542;2023-02-02T08:46:12;5.80;99.90
57108;DHT22;42987;52.916;6.542;2023-02-02T08:48:39;5.80;99.90
57108;DHT22;42987;52.916;6.542;2023-02-02T08:51:06;5.90;99.90
57108;DHT22;42987;52.916;6.542;2023-02-02T08:53:32;5.90;99.90
57108;DHT22;42987;52.916;6.542;2023-02-02T08:58:24;5.90;99.90
57108;DHT22;42987;52.916;6.542;2023-02-02T09:00:50;6.00;99.90
57108;DHT22;42987;52.916;6.542;2023-02-02T09:03:16;6.00;99.90
57108;DHT22;42987;52.916;6.542;2023-02-02T09:05:45;6.10;99.90
57108;DHT22;42987;52.916;6.542;2023-02-02T09:08:10;6.10;99.90
57108;DHT22;42987;52.916;6.542;2023-02-02T09:10:37;6.10;99.90
57108;DHT22;42987;52.916;6.542;2023-02-02T09:13:03;6.10;99.90
57108;DHT22;42987;52.916;6.542;2023-02-02T09:15:29;6.20;99.90
57108;DHT22;42987;52.916;6.542;2023-02-02T09:17:55;6.20;99.90
57108;DHT22;42987;52.916;6.542;2023-02-02T09:20:21;6.20;99.90
57108;DHT22;42987;52.916;6.542;2023-02-02T09:22:47;6.20;99.90
57108;DHT22;42987;52.916;6.542;2023-02-02T09:25:13;6.30;99.90
57108;DHT22;42987;52.916;6.542;2023-02-02T09:27:39;6.30;99.90
57108;DHT22;42987;52.916;6.542;2023-02-02T09:30:07;6.30;99.90
57108;DHT22;42987;52.916;6.542;2023-02-02T09:32:33;6.40;99.90
57108;DHT22;42987;52.916;6.542;2023-02-02T09:34:59;6.30;99.90
57108;DHT22;42987;52.916;6.542;2023-02-02T09:37:26;6.40;99.90
57108;DHT22;42987;52.916;6.542;2023-02-02T09:39:52;6.40;99.90
57108;DHT22;42987;52.916;6.542;2023-02-02T09:42:26;6.40;99.90
57108;DHT22;42987;52.916;6.542;2023-02-02T09:58:40;6.60;99.90
57108;DHT22;42987;52.916;6.542;2023-02-02T10:03:26;6.60;99.90
57108;DHT22;42987;52.916;6.542;2023-02-02T10:08:43;6.60;99.90
57108;DHT22;42987;52.916;6.542;2023-02-02T10:12:02;6.60;99.90
57108;DHT22;42987;52.916;6.542;2023-02-02T10:14:38;6.70;99.90
57108;DHT22;42987;52.916;6.542;2023-02-02T10:17:34;6.70;99.90
57108;DHT22;42987;52.916;6.542;2023-02-02T10:20:16;6.70;99.90
57108;DHT22;42987;52.916;6.542;2023-02-02T10:22:45;6.80;99.90
57108;DHT22;42987;52.916;6.542;2023-02-02T10:25:13;6.80;99.90
57108;DHT22;42987;52.916;6.542;2023-02-02T10:27:40;6.80;99.90
57108;DHT22;42987;52.916;6.542;2023-02-02T10:30:28;6.90;99.90
57108;DHT22;42987;52.916;6.542;2023-02-02T10:33:04;6.80;99.90
57108;DHT22;42987;52.916;6.542;2023-02-02T10:35:41;6.80;99.90
57108;DHT22;42987;52.916;6.542;2023-02-02T10:51:37;6.80;99.90
57108;DHT22;42987;52.916;6.542;2023-02-02T10:54:19;6.80;99.90
57108;DHT22;42987;52.916;6.542;2023-02-02T10:56:51;6.80;99.90
57108;DHT22;42987;52.916;6.542;2023-02-02T10:59:28;6.80;99.90
57108;DHT22;42987;52.916;6.542;2023-02-02T11:01:56;6.80;99.90
57108;DHT22;42987;52.916;6.542;2023-02-02T11:04:25;6.80;99.90
57108;DHT22;42987;52.916;6.542;2023-02-02T11:07:11;6.80;99.90
57108;DHT22;42987;52.916;6.542;2023-02-02T11:09:44;6.80;99.90
57108;DHT22;42987;52.916;6.542;2023-02-02T11:12:35;6.80;99.90
57108;DHT22;42987;52.916;6.542;2023-02-02T11:15:07;6.80;99.90
57108;DHT22;42987;52.916;6.542;2023-02-02T11:17:33;6.80;99.90
57108;DHT22;42987;52.916;6.542;2023-02-02T11:19:59;6.80;99.90
57108;DHT22;42987;52.916;6.542;2023-02-02T11:22:35;6.90;99.90
57108;DHT22;42987;52.916;6.542;2023-02-02T11:25:20;6.90;99.90
57108;DHT22;42987;52.916;6.542;2023-02-02T11:27:50;6.90;99.90
57108;DHT22;42987;52.916;6.542;2023-02-02T11:32:52;6.90;99.90
57108;DHT22;42987;52.916;6.542;2023-02-02T11:35:27;6.90;99.90
57108;DHT22;42987;52.916;6.542;2023-02-02T11:37:58;6.90;99.90
57108;DHT22;42987;52.916;6.542;2023-02-02T11:42:56;6.90;99.90
57108;DHT22;42987;52.916;6.542;2023-02-02T11:45:35;6.80;99.90
57108;DHT22;42987;52.916;6.542;2023-02-02T11:48:16;6.90;99.90
57108;DHT22;42987;52.916;6.542;2023-02-02T11:50:49;6.80;99.90
57108;DHT22;42987;52.916;6.542;2023-02-02T11:53:32;6.80;99.90
57108;DHT22;42987;52.916;6.542;2023-02-02T11:56:03;6.80;99.90
57108;DHT22;42987;52.916;6.542;2023-02-02T11:58:45;6.80;99.90
57108;DHT22;42987;52.916;6.542;2023-02-02T12:03:47;6.80;99.90
57108;DHT22;42987;52.916;6.542;2023-02-02T12:06:25;6.80;99.90
57108;DHT22;42987;52.916;6.542;2023-02-02T12:09:00;6.80;99.90
57108;DHT22;42987;52.916;6.542;2023-02-02T12:17:08;6.80;99.90
57108;DHT22;42987;52.916;6.542;2023-02-02T12:26:39;6.80;99.90
57108;DHT22;42987;52.916;6.542;2023-02-02T12:32:20;6.80;99.90
57108;DHT22;42987;52.916;6.542;2023-02-02T12:37:52;6.80;99.90
57108;DHT22;42987;52.916;6.542;2023-02-02T12:40:50;6.70;99.90
57108;DHT22;42987;52.916;6.542;2023-02-02T12:43:41;6.70;99.90
57108;DHT22;42987;52.916;6.542;2023-02-02T12:46:11;6.70;99.90
57108;DHT22;42987;52.916;6.542;2023-02-02T12:48:51;6.60;99.90
57108;DHT22;42987;52.916;6.542;2023-02-02T13:03:00;6.60;99.90
57108;DHT22;42987;52.916;6.542;2023-02-02T13:08:29;6.60;99.90
57108;DHT22;42987;52.916;6.542;2023-02-02T13:11:06;6.60;99.90
57108;DHT22;42987;52.916;6.542;2023-02-02T13:13:59;6.60;99.90
57108;DHT22;42987;52.916;6.542;2023-02-02T13:16:28;6.50;99.90
57108;DHT22;42987;52.916;6.542;2023-02-02T13:19:00;6.60;99.90
57108;DHT22;42987;52.916;6.542;2023-02-02T13:21:27;6.60;99.90
57108;DHT22;42987;52.916;6.542;2023-02-02T13:24:00;6.60;99.90
57108;DHT22;42987;52.916;6.542;2023-02-02T13:26:35;6.60;99.90
57108;DHT22;42987;52.916;6.542;2023-02-02T13:31:42;6.60;99.90
57108;DHT22;42987;52.916;6.542;2023-02-02T13:34:23;6.60;99.90
57108;DHT22;42987;52.916;6.542;2023-02-02T13:36:56;6.60;99.90
57108;DHT22;42987;52.916;6.542;2023-02-02T13:39:37;6.60;99.90
57108;DHT22;42987;52.916;6.542;2023-02-02T13:42:07;6.60;99.90
57108;DHT22;42987;52.916;6.542;2023-02-02T13:44:47;6.60;99.90
57108;DHT22;42987;52.916;6.542;2023-02-02T13:47:33;6.60;99.90
57108;DHT22;42987;52.916;6.542;2023-02-02T13:50:05;6.70;99.90
57108;DHT22;42987;52.916;6.542;2023-02-02T13:53:02;6.70;99.90
57108;DHT22;42987;52.916;6.542;2023-02-02T13:59:00;6.80;99.90
57108;DHT22;42987;52.916;6.542;2023-02-02T14:01:23;6.80;99.90
57108;DHT22;42987;52.916;6.542;2023-02-02T14:03:56;6.90;99.90
57108;DHT22;42987;52.916;6.542;2023-02-02T14:06:25;6.90;99.90
57108;DHT22;42987;52.916;6.542;2023-02-02T14:08:58;7.00;99.90
57108;DHT22;42987;52.916;6.542;2023-02-02T14:11:36;7.10;99.90
57108;DHT22;42987;52.916;6.542;2023-02-02T14:14:18;7.20;99.90
57108;DHT22;42987;52.916;6.542;2023-02-02T14:19:59;7.20;99.90
57108;DHT22;42987;52.916;6.542;2023-02-02T14:22:47;7.30;99.90
57108;DHT22;42987;52.916;6.542;2023-02-02T14:28:03;7.40;99.90
57108;DHT22;42987;52.916;6.542;2023-02-02T14:30:32;7.40;99.90
57108;DHT22;42987;52.916;6.542;2023-02-02T14:43:40;7.50;99.90
57108;DHT22;42987;52.916;6.542;2023-02-02T14:46:22;7.50;99.90
57108;DHT22;42987;52.916;6.542;2023-02-02T14:49:07;7.60;99.90
57108;DHT22;42987;52.916;6.542;2023-02-02T14:51:45;7.50;99.90
57108;DHT22;42987;52.916;6.542;2023-02-02T14:54:22;7.60;99.90
57108;DHT22;42987;52.916;6.542;2023-02-02T14:56:54;7.60;99.90
57108;DHT22;42987;52.916;6.542;2023-02-02T14:59:53;7.60;99.90
57108;DHT22;42987;52.916;6.542;2023-02-02T15:05:33;7.60;99.90
57108;DHT22;42987;52.916;6.542;2023-02-02T15:08:07;7.60;99.90
57108;DHT22;42987;52.916;6.542;2023-02-02T15:13:23;7.60;99.90
57108;DHT22;42987;52.916;6.542;2023-02-02T15:15:59;7.60;99.90
57108;DHT22;42987;52.916;6.542;2023-02-02T15:18:30;7.50;99.90
57108;DHT22;42987;52.916;6.542;2023-02-02T15:20:59;7.60;99.90
57108;DHT22;42987;52.916;6.542;2023-02-02T15:23:33;7.50;99.90
57108;DHT22;42987;52.916;6.542;2023-02-02T15:26:25;7.60;99.90
57108;DHT22;42987;52.916;6.542;2023-02-02T15:28:59;7.50;99.90
57108;DHT22;42987;52.916;6.542;2023-02-02T15:31:40;7.50;99.90
57108;DHT22;42987;52.916;6.542;2023-02-02T15:36:47;7.50;99.90
57108;DHT22;42987;52.916;6.542;2023-02-02T15:41:57;7.50;99.90
57108;DHT22;42987;52.916;6.542;2023-02-02T15:44:43;7.60;99.90
57108;DHT22;42987;52.916;6.542;2023-02-02T15:47:18;7.50;99.90
57108;DHT22;42987;52.916;6.542;2023-02-02T15:49:48;7.50;99.90
57108;DHT22;42987;52.916;6.542;2023-02-02T15:52:27;7.60;99.90
57108;DHT22;42987;52.916;6.542;2023-02-02T15:54:58;7.50;99.90
57108;DHT22;42987;52.916;6.542;2023-02-02T15:57:34;7.50;99.90
57108;DHT22;42987;52.916;6.542;2023-02-02T16:00:36;7.60;99.90
57108;DHT22;42987;52.916;6.542;2023-02-02T16:03:13;7.60;99.90
57108;DHT22;42987;52.916;6.542;2023-02-02T16:05:43;7.60;99.90
57108;DHT22;42987;52.916;6.542;2023-02-02T16:08:17;7.60;99.90
57108;DHT22;42987;52.916;6.542;2023-02-02T16:10:44;7.50;99.90
57108;DHT22;42987;52.916;6.542;2023-02-02T16:13:23;7.50;99.90
57108;DHT22;42987;52.916;6.542;2023-02-02T16:16:00;7.60;99.90
57108;DHT22;42987;52.916;6.542;2023-02-02T16:18:28;7.50;99.90
57108;DHT22;42987;52.916;6.542;2023-02-02T16:20:54;7.50;99.90
57108;DHT22;42987;52.916;6.542;2023-02-02T16:23:28;7.50;99.90
57108;DHT22;42987;52.916;6.542;2023-02-02T16:25:57;7.50;99.90
57108;DHT22;42987;52.916;6.542;2023-02-02T16:28:24;7.60;99.90
57108;DHT22;42987;52.916;6.542;2023-02-02T16:30:50;7.50;99.90
57108;DHT22;42987;52.916;6.542;2023-02-02T16:33:42;7.50;99.90
57108;DHT22;42987;52.916;6.542;2023-02-02T16:36:26;7.60;99.90
57108;DHT22;42987;52.916;6.542;2023-02-02T16:38:54;7.60;99.90
57108;DHT22;42987;52.916;6.542;2023-02-02T16:41:34;7.60;99.90
57108;DHT22;42987;52.916;6.542;2023-02-02T16:47:00;7.60;99.90
57108;DHT22;42987;52.916;6.542;2023-02-02T16:49:28;7.60;99.90
57108;DHT22;42987;52.916;6.542;2023-02-02T16:54:51;7.60;99.90
57108;DHT22;42987;52.916;6.542;2023-02-02T16:57:32;7.60;99.90
57108;DHT22;42987;52.916;6.542;2023-02-02T17:00:01;7.70;99.90
57108;DHT22;42987;52.916;6.542;2023-02-02T17:02:40;7.70;99.90
57108;DHT22;42987;52.916;6.542;2023-02-02T17:05:20;7.70;99.90
57108;DHT22;42987;52.916;6.542;2023-02-02T17:07:59;7.70;99.90
57108;DHT22;42987;52.916;6.542;2023-02-02T17:10:39;7.70;99.90
57108;DHT22;42987;52.916;6.542;2023-02-02T17:13:39;7.70;99.90
57108;DHT22;42987;52.916;6.542;2023-02-02T17:16:08;7.80;99.90
57108;DHT22;42987;52.916;6.542;2023-02-02T17:18:37;7.80;99.90
57108;DHT22;42987;52.916;6.542;2023-02-02T17:21:05;7.80;99.90
57108;DHT22;42987;52.916;6.542;2023-02-02T17:23:35;7.80;99.90
57108;DHT22;42987;52.916;6.542;2023-02-02T17:26:02;7.80;99.90
57108;DHT22;42987;52.916;6.542;2023-02-02T17:28:28;7.80;99.90
57108;DHT22;42987;52.916;6.542;2023-02-02T17:30:58;7.80;99.90
57108;DHT22;42987;52.916;6.542;2023-02-02T17:33:25;7.90;99.90
57108;DHT22;42987;52.916;6.542;2023-02-02T17:35:52;7.90;99.90
57108;DHT22;42987;52.916;6.542;2023-02-02T17:38:19;7.90;99.90
57108;DHT22;42987;52.916;6.542;2023-02-02T17:40:45;7.90;99.90
57108;DHT22;42987;52.916;6.542;2023-02-02T17:43:11;7.80;99.90
57108;DHT22;42987;52.916;6.542;2023-02-02T17:45:37;7.90;99.90
57108;DHT22;42987;52.916;6.542;2023-02-02T17:48:04;7.90;99.90
57108;DHT22;42987;52.916;6.542;2023-02-02T17:50:31;7.90;99.90
57108;DHT22;42987;52.916;6.542;2023-02-02T17:52:57;7.90;99.90
57108;DHT22;42987;52.916;6.542;2023-02-02T17:55:30;7.90;99.90
57108;DHT22;42987;52.916;6.542;2023-02-02T17:57:56;7.90;99.90
57108;DHT22;42987;52.916;6.542;2023-02-02T18:00:25;7.90;99.90
57108;DHT22;42987;52.916;6.542;2023-02-02T18:02:54;7.90;99.90
57108;DHT22;42987;52.916;6.542;2023-02-02T18:05:22;7.90;99.90
57108;DHT22;42987;52.916;6.542;2023-02-02T18:07:48;7.90;99.90
57108;DHT22;42987;52.916;6.542;2023-02-02T18:10:15;7.90;99.90
57108;DHT22;42987;52.916;6.542;2023-02-02T18:12:41;7.90;99.90
57108;DHT22;42987;52.916;6.542;2023-02-02T18:15:11;7.90;99.90
57108;DHT22;42987;52.916;6.542;2023-02-02T18:17:38;7.90;99.90
57108;DHT22;42987;52.916;6.542;2023-02-02T18:20:04;7.90;99.90
57108;DHT22;42987;52.916;6.542;2023-02-02T18:22:31;7.90;99.90
57108;DHT22;42987;52.916;6.542;2023-02-02T18:24:57;7.90;99.90